Time;durP1;ratioP1;P1;durP2;ratioP2;P2;SDS_P1;SDS_P2;PMS_P1;PMS_P2;Temp;Humidity;BMP_temperature;BMP_pressure;BME280_temperature;BME280_humidity;BME280_pressure;Samples;Min_cycle;Max_cycle;Signal;HPM_P1;HPM_P2
2021/11/01 00:01:59;;;;;;;;;2.75;2.75;;;;;;;;5010681;28;49745;-82
2021/11/01 00:04:24;;;;;;;;;2.00;2.00;;;;;;;;5029035;28;49745;-68
2021/11/01 00:06:49;;;;;;;;;2.50;2.50;;;;;;;;5031485;28;49612;-67
2021/11/01 00:09:14;;;;;;;;;4.00;2.00;;;;;;;;5031113;28;49864;-68
2021/11/01 00:11:40;;;;;;;;;4.00;2.00;;;;;;;;5030952;28;49613;-66
2021/11/01 00:14:05;;;;;;;;;1.00;1.00;;;;;;;;5030600;28;49802;-66
2021/11/01 00:16:30;;;;;;;;;4.50;3.00;;;;;;;;5030557;28;49577;-67
2021/11/01 00:18:55;;;;;;;;;7.75;3.50;;;;;;;;5031113;28;49825;-66
2021/11/01 00:21:21;;;;;;;;;2.25;1.25;;;;;;;;5030910;28;49638;-67
2021/11/01 00:23:46;;;;;;;;;3.25;2.75;;;;;;;;5030782;28;49901;-67
2021/11/01 00:26:11;;;;;;;;;3.00;2.00;;;;;;;;5012614;28;49779;-67
2021/11/01 00:28:37;;;;;;;;;2.25;2.25;;;;;;;;5031018;28;49985;-67
2021/11/01 00:31:02;;;;;;;;;3.25;1.00;;;;;;;;5031002;28;49920;-72
2021/11/01 00:33:28;;;;;;;;;3.75;2.25;;;;;;;;5012544;28;50457;-67
2021/11/01 00:35:53;;;;;;;;;5.00;3.00;;;;;;;;5030463;28;49750;-67
2021/11/01 00:38:18;;;;;;;;;6.00;2.75;;;;;;;;5030863;28;49798;-68
2021/11/01 00:40:44;;;;;;;;;4.25;2.00;;;;;;;;5030763;28;49974;-68
2021/11/01 00:43:09;;;;;;;;;1.75;1.75;;;;;;;;5030511;28;50070;-68
2021/11/01 00:45:34;;;;;;;;;6.25;2.75;;;;;;;;5030407;28;49706;-67
2021/11/01 00:48:00;;;;;;;;;4.25;2.75;;;;;;;;5030477;28;50091;-67
2021/11/01 00:50:25;;;;;;;;;3.50;1.00;;;;;;;;4995818;28;49616;-67
2021/11/01 00:52:50;;;;;;;;;5.00;3.25;;;;;;;;5030350;28;49815;-65
2021/11/01 00:55:23;;;;;;;;;3.25;2.50;;;;;;;;5030259;28;49944;-66
2021/11/01 00:57:50;;;;;;;;;1.50;1.50;;;;;;;;5030443;28;49698;-66
2021/11/01 01:00:15;;;;;;;;;2.00;1.25;;;;;;;;5012851;28;49890;-66
2021/11/01 01:02:40;;;;;;;;;1.00;1.00;;;;;;;;5030149;28;50471;-66
2021/11/01 01:05:06;;;;;;;;;2.00;0.25;;;;;;;;4995485;28;49794;-66
2021/11/01 01:07:31;;;;;;;;;1.75;1.00;;;;;;;;5030295;28;49733;-73
2021/11/01 01:09:57;;;;;;;;;3.25;2.75;;;;;;;;5033114;28;49949;-72
2021/11/01 01:12:23;;;;;;;;;2.00;0.75;;;;;;;;5015778;28;51570;-67
2021/11/01 01:14:59;;;;;;;;;2.25;1.25;;;;;;;;5016339;28;49746;-71
2021/11/01 01:17:25;;;;;;;;;4.00;1.75;;;;;;;;5015219;28;49868;-74
2021/11/01 01:20:13;;;;;;;;;3.50;2.00;;;;;;;;5033829;28;49550;-70
2021/11/01 01:22:37;;;;;;;;;3.75;1.50;;;;;;;;5018742;28;51459;-82
2021/11/01 01:25:05;;;;;;;;;4.00;1.25;;;;;;;;5015745;28;49632;-73
2021/11/01 01:27:31;;;;;;;;;3.25;1.00;;;;;;;;5034214;28;49884;-70
2021/11/01 01:29:56;;;;;;;;;1.00;1.00;;;;;;;;5016585;28;49691;-75
2021/11/01 01:32:21;;;;;;;;;7.00;4.00;;;;;;;;5033931;28;50865;-68
2021/11/01 01:34:46;;;;;;;;;4.25;2.00;;;;;;;;5034150;28;49613;-78
2021/11/01 01:37:12;;;;;;;;;2.75;1.50;;;;;;;;5034183;28;51581;-76
2021/11/01 01:39:37;;;;;;;;;3.00;2.00;;;;;;;;5034499;28;49613;-79
2021/11/01 01:42:03;;;;;;;;;2.00;1.00;;;;;;;;5033810;28;55712;-67
2021/11/01 01:44:28;;;;;;;;;2.50;2.00;;;;;;;;5034265;28;49906;-78
2021/11/01 01:46:53;;;;;;;;;2.50;1.00;;;;;;;;5033884;28;49809;-78
2021/11/01 01:49:18;;;;;;;;;2.75;1.00;;;;;;;;5015238;28;50012;-83
2021/11/01 01:51:43;;;;;;;;;2.75;2.75;;;;;;;;5032368;28;61980;-78
2021/11/01 01:54:09;;;;;;;;;1.50;1.00;;;;;;;;5015207;28;49775;-71
2021/11/01 01:56:34;;;;;;;;;1.75;0.25;;;;;;;;5033227;28;49948;-75
2021/11/01 01:59:02;;;;;;;;;3.00;1.25;;;;;;;;5015318;28;49677;-72
2021/11/01 02:01:27;;;;;;;;;1.50;1.00;;;;;;;;5015217;28;50937;-81
2021/11/01 02:03:53;;;;;;;;;2.00;1.00;;;;;;;;5033498;28;49939;-73
2021/11/01 02:06:27;;;;;;;;;2.00;2.00;;;;;;;;4998315;28;49841;-82
2021/11/01 02:08:58;;;;;;;;;3.25;2.50;;;;;;;;5033506;28;49885;-67
2021/11/01 02:11:32;;;;;;;;;2.00;1.25;;;;;;;;4997711;28;51078;-66
2021/11/01 02:13:57;;;;;;;;;2.00;1.25;;;;;;;;5014886;28;49685;-66
2021/11/01 02:16:23;;;;;;;;;1.00;1.00;;;;;;;;5014385;28;49823;-67
2021/11/01 02:18:48;;;;;;;;;1.75;1.75;;;;;;;;5032905;28;49800;-67
2021/11/01 02:21:15;;;;;;;;;1.25;1.00;;;;;;;;5030770;28;51674;-67
2021/11/01 02:23:48;;;;;;;;;2.00;1.00;;;;;;;;5032610;28;49798;-67
2021/11/01 02:26:15;;;;;;;;;1.00;1.00;;;;;;;;5014556;28;49807;-67
2021/11/01 02:28:40;;;;;;;;;1.75;1.00;;;;;;;;5032464;28;49824;-67
2021/11/01 02:31:06;;;;;;;;;1.50;1.50;;;;;;;;5014203;28;49664;-67
2021/11/01 02:33:31;;;;;;;;;1.75;1.75;;;;;;;;5032328;28;49720;-67
2021/11/01 02:35:56;;;;;;;;;1.00;1.00;;;;;;;;5014346;28;49913;-67
2021/11/01 02:38:23;;;;;;;;;0.75;0.75;;;;;;;;5032489;28;49654;-67
2021/11/01 02:40:48;;;;;;;;;3.25;1.00;;;;;;;;5032091;28;50487;-67
2021/11/01 02:43:14;;;;;;;;;3.75;1.00;;;;;;;;5032279;28;49938;-67
2021/11/01 02:45:40;;;;;;;;;3.00;1.50;;;;;;;;5014431;28;50022;-67
2021/11/01 02:48:05;;;;;;;;;2.50;1.25;;;;;;;;5032331;28;49890;-67
2021/11/01 02:50:30;;;;;;;;;5.50;2.00;;;;;;;;5013495;28;51943;-67
2021/11/01 02:52:56;;;;;;;;;1.00;1.00;;;;;;;;5032040;28;49617;-66
2021/11/01 02:55:21;;;;;;;;;1.25;1.25;;;;;;;;5031803;28;54141;-67
2021/11/01 02:57:47;;;;;;;;;0.50;0.50;;;;;;;;5032269;28;49812;-67
2021/11/01 03:00:12;;;;;;;;;2.50;0.75;;;;;;;;4997019;28;50621;-67
2021/11/01 03:02:38;;;;;;;;;1.25;0.75;;;;;;;;5032017;28;49755;-66
2021/11/01 03:05:03;;;;;;;;;4.25;1.00;;;;;;;;5031805;28;49942;-66
2021/11/01 03:07:29;;;;;;;;;2.00;2.00;;;;;;;;5032135;28;49815;-69
2021/11/01 03:09:54;;;;;;;;;2.00;2.00;;;;;;;;5013719;28;50919;-67
2021/11/01 03:12:19;;;;;;;;;2.75;1.75;;;;;;;;5013954;28;49755;-66
2021/11/01 03:14:48;;;;;;;;;2.00;2.00;;;;;;;;5031738;28;49911;-66
2021/11/01 03:17:15;;;;;;;;;2.75;0.50;;;;;;;;5031617;28;49879;-67
2021/11/01 03:19:42;;;;;;;;;3.00;1.00;;;;;;;;5031397;28;50368;-67
2021/11/01 03:22:07;;;;;;;;;2.00;0.00;;;;;;;;4996636;28;49806;-67
2021/11/01 03:24:33;;;;;;;;;3.25;2.00;;;;;;;;5013769;28;49875;-66
2021/11/01 03:26:58;;;;;;;;;2.75;1.75;;;;;;;;5013744;28;49976;-66
2021/11/01 03:29:23;;;;;;;;;3.00;1.25;;;;;;;;5031285;28;50876;-67
2021/11/01 03:31:48;;;;;;;;;5.25;1.00;;;;;;;;5013309;28;49939;-67
2021/11/01 03:34:14;;;;;;;;;4.75;3.00;;;;;;;;5031511;28;49610;-67
2021/11/01 03:36:39;;;;;;;;;2.00;0.00;;;;;;;;5013611;28;49838;-67
2021/11/01 03:39:06;;;;;;;;;1.75;1.50;;;;;;;;5013406;28;49787;-67
2021/11/01 03:41:32;;;;;;;;;1.00;1.00;;;;;;;;5031459;28;49858;-67
2021/11/01 03:44:04;;;;;;;;;1.75;0.50;;;;;;;;5013369;28;49851;-67
2021/11/01 03:46:45;;;;;;;;;0.00;0.00;;;;;;;;5031410;28;49880;-75
2021/11/01 03:49:11;;;;;;;;;3.00;2.00;;;;;;;;5015310;28;50632;-77
2021/11/01 03:54:12;;;;;;;;;2.00;1.00;;;;;;;;5031020;28;49706;-75
2021/11/01 03:56:37;;;;;;;;;0.25;0.00;;;;;;;;5031467;28;50045;-72
2021/11/01 03:59:03;;;;;;;;;2.50;1.75;;;;;;;;5030999;28;50742;-77
2021/11/01 04:01:28;;;;;;;;;1.00;1.00;;;;;;;;4996649;28;49793;-80
2021/11/01 04:03:53;;;;;;;;;1.00;1.00;;;;;;;;5031048;28;49844;-74
2021/11/01 04:06:19;;;;;;;;;1.00;1.00;;;;;;;;5030963;28;49639;-80
2021/11/01 04:08:45;;;;;;;;;0.50;0.50;;;;;;;;5030830;28;49824;-81
2021/11/01 04:11:12;;;;;;;;;0.75;0.00;;;;;;;;5013209;28;49806;-81
2021/11/01 04:13:37;;;;;;;;;0.50;0.50;;;;;;;;5013031;28;49824;-66
2021/11/01 04:16:10;;;;;;;;;0.00;0.00;;;;;;;;5013256;28;49589;-67
2021/11/01 04:18:49;;;;;;;;;1.50;1.50;;;;;;;;5030655;28;50795;-67
2021/11/01 04:21:14;;;;;;;;;0.25;0.25;;;;;;;;5030259;28;49977;-67
2021/11/01 04:23:40;;;;;;;;;1.00;0.00;;;;;;;;5030799;28;50089;-67
2021/11/01 04:26:05;;;;;;;;;3.75;0.25;;;;;;;;5030849;28;50038;-67
2021/11/01 04:28:31;;;;;;;;;2.50;1.50;;;;;;;;5030356;28;51644;-71
2021/11/01 04:31:09;;;;;;;;;0.25;0.25;;;;;;;;5030603;28;49892;-67
2021/11/01 04:33:34;;;;;;;;;2.25;0.00;;;;;;;;5030622;28;49510;-67
2021/11/01 04:35:59;;;;;;;;;2.00;0.00;;;;;;;;5030394;28;49961;-66
2021/11/01 04:54:30;;;;;;;;;0.75;0.75;;;;;;;;5030352;28;49847;-67
2021/11/01 04:56:55;;;;;;;;;1.75;1.00;;;;;;;;5030433;28;49718;-67
2021/11/01 04:59:22;;;;;;;;;2.75;0.50;;;;;;;;5030100;28;49824;-66
2021/11/01 05:01:51;;;;;;;;;3.00;3.00;;;;;;;;5030348;28;49827;-66
2021/11/01 05:04:28;;;;;;;;;0.50;0.00;;;;;;;;5030095;28;49738;-66
2021/11/01 05:06:57;;;;;;;;;2.00;0.00;;;;;;;;5030331;28;50055;-65
2021/11/01 05:09:47;;;;;;;;;1.00;1.00;;;;;;;;5030198;28;50473;-66
2021/11/01 05:25:22;;;;;;;;;0.00;0.00;;;;;;;;4984567;28;50099;-67
2021/11/01 05:27:55;;;;;;;;;0.00;0.00;;;;;;;;5012646;28;49809;-69
2021/11/01 05:35:38;;;;;;;;;2.25;0.00;;;;;;;;4997751;28;49874;-67
2021/11/01 05:38:03;;;;;;;;;0.50;0.00;;;;;;;;5029868;28;49790;-81
2021/11/01 05:40:28;;;;;;;;;0.00;0.00;;;;;;;;5029735;28;49830;-81
2021/11/01 05:42:53;;;;;;;;;0.00;0.00;;;;;;;;5030056;28;49643;-81
2021/11/01 05:45:19;;;;;;;;;3.50;1.75;;;;;;;;5029903;28;49854;-76
2021/11/01 05:47:48;;;;;;;;;1.00;1.00;;;;;;;;5030037;28;49668;-72
2021/11/01 05:50:13;;;;;;;;;1.00;1.00;;;;;;;;4995512;28;50845;-78
2021/11/01 05:52:41;;;;;;;;;0.00;0.00;;;;;;;;5011611;28;49957;-79
2021/11/01 05:55:19;;;;;;;;;1.50;0.50;;;;;;;;5031138;28;49749;-76
2021/11/01 05:58:03;;;;;;;;;0.50;0.50;;;;;;;;5033293;28;49685;-78
2021/11/01 06:13:30;;;;;;;;;2.00;0.75;;;;;;;;5032689;28;49706;-70
2021/11/01 06:15:56;;;;;;;;;1.25;1.25;;;;;;;;5017238;28;49645;-67
2021/11/01 06:18:26;;;;;;;;;0.00;0.00;;;;;;;;5032413;28;49928;-65
2021/11/01 06:20:52;;;;;;;;;0.00;0.00;;;;;;;;5032330;28;49701;-66
2021/11/01 06:23:17;;;;;;;;;0.75;0.75;;;;;;;;5032676;28;49713;-66
2021/11/01 06:25:44;;;;;;;;;1.25;0.00;;;;;;;;5032651;28;49885;-66
2021/11/01 06:28:13;;;;;;;;;1.00;0.00;;;;;;;;5032443;28;49561;-69
2021/11/01 06:30:45;;;;;;;;;1.75;0.75;;;;;;;;5032209;28;50498;-69
2021/11/01 06:33:37;;;;;;;;;3.25;1.25;;;;;;;;5032281;28;49962;-74
2021/11/01 06:42:08;;;;;;;;;0.00;0.00;;;;;;;;5032181;28;49657;-69
2021/11/01 06:57:39;;;;;;;;;1.00;1.00;;;;;;;;5032227;28;49785;-77
2021/11/01 07:16:39;;;;;;;;;0.50;0.00;;;;;;;;5015981;28;49677;-74
2021/11/01 07:22:25;;;;;;;;;1.00;1.00;;;;;;;;5007854;28;49910;-80
2021/11/01 08:40:40;;;;;;;;;2.00;1.00;;;;;;;;5031970;28;49897;-67
2021/11/01 08:43:13;;;;;;;;;0.00;0.00;;;;;;;;5043356;28;49780;-69
2021/11/01 08:48:52;;;;;;;;;1.75;1.75;;;;;;;;4989562;28;49715;-79
2021/11/01 09:20:49;;;;;;;;;2.00;0.50;;;;;;;;5046148;28;49682;-78
2021/11/01 09:26:03;;;;;;;;;0.00;0.00;;;;;;;;5030889;28;49394;-78
2021/11/01 09:28:35;;;;;;;;;0.25;0.25;;;;;;;;5012128;28;49202;-77
2021/11/01 09:36:48;;;;;;;;;2.75;0.00;;;;;;;;5050924;28;49462;-76
2021/11/01 09:41:42;;;;;;;;;0.00;0.00;;;;;;;;5035658;28;49421;-75
2021/11/01 09:44:11;;;;;;;;;1.00;1.00;;;;;;;;4995801;28;51303;-75
2021/11/01 09:46:36;;;;;;;;;1.50;0.50;;;;;;;;5013168;28;49358;-75
2021/11/01 09:51:36;;;;;;;;;0.00;0.00;;;;;;;;5012862;28;49443;-75
2021/11/01 09:54:01;;;;;;;;;0.25;0.25;;;;;;;;4994300;28;50511;-75
2021/11/01 09:56:41;;;;;;;;;0.50;0.50;;;;;;;;5012778;28;49597;-76
2021/11/01 09:59:13;;;;;;;;;1.25;0.00;;;;;;;;4997592;28;49646;-75
2021/11/01 10:01:41;;;;;;;;;2.00;1.00;;;;;;;;4995632;28;49651;-75
2021/11/01 10:04:25;;;;;;;;;0.25;0.25;;;;;;;;5011402;28;50472;-75
2021/11/01 10:07:10;;;;;;;;;2.00;0.50;;;;;;;;4996311;28;49383;-76
2021/11/01 10:09:35;;;;;;;;;2.00;1.00;;;;;;;;4992186;28;49600;-75
2021/11/01 10:12:00;;;;;;;;;2.75;0.00;;;;;;;;5009030;28;52133;-76
2021/11/01 10:14:26;;;;;;;;;0.00;0.00;;;;;;;;4995307;28;52023;-75
2021/11/01 10:19:37;;;;;;;;;2.00;2.00;;;;;;;;5014662;28;49332;-76
2021/11/01 10:22:03;;;;;;;;;0.75;0.25;;;;;;;;5012261;28;49572;-75
2021/11/01 10:24:32;;;;;;;;;0.00;0.00;;;;;;;;5012191;28;51036;-75
2021/11/01 10:26:58;;;;;;;;;0.50;0.00;;;;;;;;4996255;28;49479;-78
2021/11/01 10:29:23;;;;;;;;;1.00;1.00;;;;;;;;5012249;28;49445;-72
2021/11/01 10:31:48;;;;;;;;;2.00;0.50;;;;;;;;4995301;28;49495;-73
2021/11/01 10:34:14;;;;;;;;;0.50;0.50;;;;;;;;5028679;28;50244;-72
2021/11/01 10:36:40;;;;;;;;;0.75;0.75;;;;;;;;4998694;28;49997;-74
2021/11/01 10:39:15;;;;;;;;;0.00;0.00;;;;;;;;5001635;28;49658;-69
2021/11/01 10:41:52;;;;;;;;;0.00;0.00;;;;;;;;5015025;28;49842;-71
2021/11/01 10:59:01;;;;;;;;;0.00;0.00;;;;;;;;5028157;28;49435;-73
2021/11/01 11:14:39;;;;;;;;;1.00;1.00;;;;;;;;5011353;28;50042;-76
2021/11/01 11:17:16;;;;;;;;;0.00;0.00;;;;;;;;5029025;28;49485;-71
2021/11/01 11:47:01;;;;;;;;;0.75;0.00;;;;;;;;5011342;28;49385;-77
2021/11/01 11:47:08;;;;;;;;;0.00;0.00;;;;;;;;5013221;28;49457;-74
2021/11/01 11:49:33;;;;;;;;;0.00;0.00;;;;;;;;5012067;28;50534;-70
2021/11/01 11:52:03;;;;;;;;;1.00;0.00;;;;;;;;5010611;28;49551;-70
2021/11/01 11:54:32;;;;;;;;;0.00;0.00;;;;;;;;5010519;28;49496;-75
2021/11/01 11:57:03;;;;;;;;;3.00;0.50;;;;;;;;5011185;28;49617;-72
2021/11/01 11:59:32;;;;;;;;;1.50;1.50;;;;;;;;5028819;28;50281;-69
2021/11/01 12:01:58;;;;;;;;;0.25;0.25;;;;;;;;5027707;28;49434;-70
2021/11/01 12:04:33;;;;;;;;;1.00;1.00;;;;;;;;5009701;28;49580;-69
2021/11/01 12:07:00;;;;;;;;;6.50;6.50;;;;;;;;5027648;28;49444;-69
2021/11/01 12:09:43;;;;;;;;;3.00;0.25;;;;;;;;5026964;28;49649;-78
2021/11/01 12:17:11;;;;;;;;;0.00;0.00;;;;;;;;5028487;28;49469;-67
2021/11/01 12:19:36;;;;;;;;;0.00;0.00;;;;;;;;5026989;28;49481;-74
2021/11/01 12:22:05;;;;;;;;;1.75;1.25;;;;;;;;5027752;28;49293;-69
2021/11/01 12:24:31;;;;;;;;;2.50;0.00;;;;;;;;5027624;28;49372;-69
2021/11/01 12:27:00;;;;;;;;;0.00;0.00;;;;;;;;5024108;28;49801;-70
2021/11/01 12:29:26;;;;;;;;;0.75;0.75;;;;;;;;5018262;28;49991;-69
2021/11/01 12:32:05;;;;;;;;;3.00;1.00;;;;;;;;5014172;28;49768;-69
2021/11/01 12:34:30;;;;;;;;;2.50;1.00;;;;;;;;5007560;28;49289;-68
2021/11/01 12:37:47;;;;;;;;;2.00;2.00;;;;;;;;5021194;28;49611;-68
2021/11/01 12:39:49;;;;;;;;;1.00;1.00;;;;;;;;4996285;28;50177;-70
2021/11/01 12:58:19;;;;;;;;;0.50;0.50;;;;;;;;5010663;28;49680;-76
2021/11/01 13:00:44;;;;;;;;;1.75;0.75;;;;;;;;4994503;28;49795;-77
2021/11/01 13:03:14;;;;;;;;;0.00;0.00;;;;;;;;4976495;28;49852;-74
2021/11/01 13:05:44;;;;;;;;;1.00;1.00;;;;;;;;4978552;28;49864;-76
2021/11/01 13:08:12;;;;;;;;;2.75;0.50;;;;;;;;5000123;28;49886;-76
2021/11/01 13:10:42;;;;;;;;;0.75;0.50;;;;;;;;4983253;28;51414;-77
2021/11/01 13:18:42;;;;;;;;;2.25;1.00;;;;;;;;5013460;28;49630;-71
2021/11/01 13:21:13;;;;;;;;;2.00;1.75;;;;;;;;4979030;28;50049;-71
2021/11/01 13:23:48;;;;;;;;;0.50;0.50;;;;;;;;4998419;28;49675;-71
2021/11/01 13:26:30;;;;;;;;;0.00;0.00;;;;;;;;4995536;28;49802;-70
2021/11/01 13:37:10;;;;;;;;;1.25;1.00;;;;;;;;5013392;28;49753;-73
2021/11/01 13:39:35;;;;;;;;;2.75;1.50;;;;;;;;4996863;28;51179;-74
2021/11/01 13:42:00;;;;;;;;;2.50;1.50;;;;;;;;4979752;28;51292;-74
2021/11/01 13:44:28;;;;;;;;;0.25;0.25;;;;;;;;4981524;28;50050;-74
2021/11/01 13:46:57;;;;;;;;;1.75;1.25;;;;;;;;4996061;28;49766;-74
2021/11/01 13:49:22;;;;;;;;;1.75;1.75;;;;;;;;5013521;28;49849;-74
2021/11/01 13:51:50;;;;;;;;;0.00;0.00;;;;;;;;4981180;28;52384;-74
2021/11/01 13:54:29;;;;;;;;;1.00;1.00;;;;;;;;5000057;28;49797;-74
2021/11/01 13:56:57;;;;;;;;;2.00;1.00;;;;;;;;4983793;28;50034;-76
2021/11/01 14:02:18;;;;;;;;;0.50;0.50;;;;;;;;5013207;28;49953;-71
2021/11/01 14:34:30;;;;;;;;;0.00;0.00;;;;;;;;5012009;28;50686;-69
2021/11/01 14:54:48;;;;;;;;;1.50;0.00;;;;;;;;5028745;28;50161;-69
2021/11/01 15:07:01;;;;;;;;;0.00;0.00;;;;;;;;5031420;28;49946;-68
2021/11/01 15:40:45;;;;;;;;;0.25;0.00;;;;;;;;5039566;28;49863;-73
2021/11/01 16:18:29;;;;;;;;;0.00;0.00;;;;;;;;5032953;28;49631;-73
2021/11/01 16:20:54;;;;;;;;;0.00;0.00;;;;;;;;5032347;28;49764;-70
2021/11/01 16:25:45;;;;;;;;;1.00;1.00;;;;;;;;5032412;28;49835;-68
2021/11/01 16:28:12;;;;;;;;;0.00;0.00;;;;;;;;5030973;28;49946;-66
2021/11/01 16:30:39;;;;;;;;;0.75;0.75;;;;;;;;5031637;28;50771;-67
2021/11/01 16:33:07;;;;;;;;;3.75;3.00;;;;;;;;5033342;28;49996;-66
2021/11/01 16:35:36;;;;;;;;;3.25;2.25;;;;;;;;5030354;28;49978;-67
2021/11/01 16:38:15;;;;;;;;;6.25;4.00;;;;;;;;5034436;28;49720;-66
2021/11/01 16:40:41;;;;;;;;;2.75;2.75;;;;;;;;5029253;28;50291;-76
2021/11/01 16:43:13;;;;;;;;;5.00;4.00;;;;;;;;5029189;28;49922;-75
2021/11/01 16:45:39;;;;;;;;;2.50;2.25;;;;;;;;5013126;28;49665;-71
2021/11/01 16:48:04;;;;;;;;;2.00;2.00;;;;;;;;5029092;28;49875;-72
2021/11/01 16:50:30;;;;;;;;;1.50;1.50;;;;;;;;5011891;28;50490;-74
2021/11/01 16:52:55;;;;;;;;;2.00;2.00;;;;;;;;5031841;28;49755;-75
2021/11/01 16:55:28;;;;;;;;;2.00;2.00;;;;;;;;5012000;28;49789;-71
2021/11/01 16:57:55;;;;;;;;;5.00;4.00;;;;;;;;5030425;28;49768;-67
2021/11/01 17:00:44;;;;;;;;;3.00;3.00;;;;;;;;5030880;28;50526;-72
2021/11/01 17:03:18;;;;;;;;;3.00;2.00;;;;;;;;5011865;28;49828;-74
2021/11/01 17:06:01;;;;;;;;;3.75;3.50;;;;;;;;5016537;28;49748;-72
2021/11/01 17:25:21;;;;;;;;;4.50;4.50;;;;;;;;5035650;28;50039;-73
2021/11/01 17:28:10;;;;;;;;;5.50;5.50;;;;;;;;5030595;28;50013;-74
2021/11/01 17:30:49;;;;;;;;;3.00;3.00;;;;;;;;5030353;28;49895;-73
2021/11/01 17:36:21;;;;;;;;;5.00;5.00;;;;;;;;5027409;28;49832;-74
2021/11/01 18:24:08;;;;;;;;;4.75;4.75;;;;;;;;5009497;28;49717;-73
2021/11/01 18:37:07;;;;;;;;;9.50;9.00;;;;;;;;5032240;28;49868;-73
2021/11/01 18:39:47;;;;;;;;;8.50;7.00;;;;;;;;5016431;28;49754;-73
2021/11/01 18:52:51;;;;;;;;;8.00;8.00;;;;;;;;5052397;28;50482;-79
2021/11/01 18:55:17;;;;;;;;;8.75;8.75;;;;;;;;5050920;28;49686;-78
2021/11/01 18:57:42;;;;;;;;;9.00;7.75;;;;;;;;5050932;28;49672;-69
2021/11/01 19:00:08;;;;;;;;;5.00;5.00;;;;;;;;5050641;28;49805;-66
2021/11/01 19:02:48;;;;;;;;;10.00;8.25;;;;;;;;5050879;28;49763;-66
2021/11/01 19:05:23;;;;;;;;;9.50;8.50;;;;;;;;5052212;28;49975;-66
2021/11/01 21:25:54;;;;;;;;;4.00;3.25;;;;;;;;5051379;28;49601;-68
2021/11/01 21:28:20;;;;;;;;;5.75;4.50;;;;;;;;5035231;28;49662;-68
2021/11/01 21:30:45;;;;;;;;;4.00;4.00;;;;;;;;5053103;28;49792;-68
2021/11/01 21:33:14;;;;;;;;;2.75;2.75;;;;;;;;5053408;28;49814;-68
2021/11/01 21:35:44;;;;;;;;;2.25;2.25;;;;;;;;5053123;28;49771;-68
2021/11/01 21:38:09;;;;;;;;;7.25;3.75;;;;;;;;5052195;28;49717;-67
2021/11/01 21:40:34;;;;;;;;;2.00;2.00;;;;;;;;5052899;28;50361;-69
2021/11/01 21:43:00;;;;;;;;;4.00;3.25;;;;;;;;5053397;28;49833;-70
2021/11/01 21:45:25;;;;;;;;;3.25;3.00;;;;;;;;5053052;28;49848;-68
2021/11/01 21:47:50;;;;;;;;;5.50;4.00;;;;;;;;5053166;28;49493;-68
2021/11/01 21:50:16;;;;;;;;;2.75;2.75;;;;;;;;5052678;28;52031;-67
2021/11/01 21:52:43;;;;;;;;;3.00;3.00;;;;;;;;5052799;28;49714;-68
2021/11/01 21:55:08;;;;;;;;;3.50;2.50;;;;;;;;5053149;28;49661;-67
2021/11/01 21:57:43;;;;;;;;;3.00;2.50;;;;;;;;5053007;28;49641;-68
2021/11/01 22:19:45;;;;;;;;;3.00;3.00;;;;;;;;5053060;28;49713;-68
2021/11/01 22:25:11;;;;;;;;;1.00;1.00;;;;;;;;5052661;28;49885;-70
2021/11/01 22:38:29;;;;;;;;;1.00;1.00;;;;;;;;5052760;28;49752;-69
2021/11/01 22:57:04;;;;;;;;;2.00;2.00;;;;;;;;5051089;28;49752;-69
2021/11/01 22:59:29;;;;;;;;;2.50;2.50;;;;;;;;5051015;28;49842;-69
2021/11/01 23:01:55;;;;;;;;;3.00;2.00;;;;;;;;5034069;28;49880;-69
2021/11/01 23:31:37;;;;;;;;;2.25;2.25;;;;;;;;5051615;28;49907;-70
2021/11/01 23:34:03;;;;;;;;;1.00;1.00;;;;;;;;5051846;28;50026;-69
2021/11/01 23:36:28;;;;;;;;;2.00;2.00;;;;;;;;5050980;28;49835;-69
2021/11/01 23:38:54;;;;;;;;;1.75;1.75;;;;;;;;5051416;28;49778;-68
2021/11/01 23:41:20;;;;;;;;;3.50;3.50;;;;;;;;5051680;28;49942;-69
2021/11/01 23:43:47;;;;;;;;;0.50;0.50;;;;;;;;5033560;28;49664;-68
2021/11/01 23:46:12;;;;;;;;;4.50;1.75;;;;;;;;5051206;28;50529;-69
2021/11/01 23:48:37;;;;;;;;;2.00;2.00;;;;;;;;5050742;28;49866;-69
2021/11/01 23:51:02;;;;;;;;;1.00;1.00;;;;;;;;5050106;28;49821;-68
2021/11/01 23:56:08;;;;;;;;;1.00;1.00;;;;;;;;5051116;28;49693;-69
2021/11/01 23:58:33;;;;;;;;;3.75;2.00;;;;;;;;5032859;28;49761;-69
